createdAt,value
2018-05-15T00:00:10.401Z,18.30
2018-05-15T00:02:37.972Z,18.23
2018-05-15T00:05:05.602Z,18.18
2018-05-15T00:07:33.178Z,18.11
2018-05-15T00:10:00.809Z,18.01
2018-05-15T00:12:28.425Z,17.94
2018-05-15T00:14:56.000Z,17.90
2018-05-15T00:17:23.637Z,17.84
2018-05-15T00:19:51.264Z,17.76
2018-05-15T00:22:18.945Z,17.73
2018-05-15T00:24:46.511Z,17.70
2018-05-15T00:27:14.137Z,17.66
2018-05-15T00:29:41.721Z,17.68
2018-05-15T00:32:09.344Z,17.69
2018-05-15T00:34:36.978Z,17.71
2018-05-15T00:37:04.540Z,17.69
2018-05-15T00:39:32.233Z,17.70
2018-05-15T00:41:59.797Z,17.65
2018-05-15T00:44:27.360Z,17.62
2018-05-15T00:46:54.997Z,17.59
2018-05-15T00:49:22.624Z,17.54
2018-05-15T00:51:50.196Z,17.50
2018-05-15T00:54:17.825Z,17.46
2018-05-15T00:56:45.452Z,17.40
2018-05-15T00:59:13.016Z,17.29
2018-05-15T01:01:40.601Z,17.16
2018-05-15T01:04:08.180Z,17.09
2018-05-15T01:06:35.756Z,17.05
2018-05-15T01:09:03.477Z,17.02
2018-05-15T01:11:31.044Z,17.06
2018-05-15T01:13:58.664Z,17.04
2018-05-15T01:16:26.232Z,17.03
2018-05-15T01:18:53.857Z,17.02
2018-05-15T01:21:21.428Z,17.00
2018-05-15T01:23:49.049Z,16.94
2018-05-15T01:26:16.685Z,16.87
2018-05-15T01:28:44.252Z,16.87
2018-05-15T01:31:11.916Z,16.83
2018-05-15T01:33:39.545Z,16.77
2018-05-15T01:36:07.091Z,16.71
2018-05-15T01:38:34.736Z,16.66
2018-05-15T01:41:02.307Z,16.60
2018-05-15T01:43:29.930Z,16.58
2018-05-15T01:45:57.566Z,16.53
2018-05-15T01:48:25.203Z,16.43
2018-05-15T01:50:52.780Z,16.36
2018-05-15T01:53:20.351Z,16.31
2018-05-15T01:55:48.052Z,16.29
2018-05-15T01:58:15.608Z,16.23
2018-05-15T02:00:43.234Z,16.16
2018-05-15T02:03:10.813Z,16.13
2018-05-15T02:05:38.352Z,16.10
2018-05-15T02:08:05.991Z,16.08
2018-05-15T02:10:33.617Z,16.03
2018-05-15T02:13:01.227Z,16.06
2018-05-15T02:15:28.871Z,16.07
2018-05-15T02:17:56.432Z,16.07
2018-05-15T02:20:23.982Z,16.08
2018-05-15T02:22:51.616Z,16.07
2018-05-15T02:25:19.271Z,16.07
2018-05-15T02:27:46.834Z,16.12
2018-05-15T02:30:14.514Z,16.16
2018-05-15T02:32:42.077Z,16.14
2018-05-15T02:35:09.653Z,16.11
2018-05-15T02:37:37.241Z,16.01
2018-05-15T02:40:04.861Z,15.93
2018-05-15T02:42:32.442Z,15.87
2018-05-15T02:45:00.031Z,15.83
2018-05-15T02:47:27.657Z,15.79
2018-05-15T02:49:55.236Z,15.81
2018-05-15T02:52:22.832Z,15.77
2018-05-15T02:54:50.414Z,15.77
2018-05-15T02:57:17.981Z,15.71
2018-05-15T02:59:45.594Z,15.70
2018-05-15T03:02:13.157Z,15.71
2018-05-15T03:04:40.785Z,15.74
2018-05-15T03:07:08.356Z,15.77
2018-05-15T03:09:35.916Z,15.75
2018-05-15T03:12:03.548Z,15.81
2018-05-15T03:14:31.181Z,15.87
2018-05-15T03:16:58.831Z,15.95
2018-05-15T03:19:26.401Z,16.00
2018-05-15T03:21:54.021Z,16.07
2018-05-15T03:24:21.640Z,16.14
2018-05-15T03:26:49.202Z,16.24
2018-05-15T03:29:16.780Z,16.31
2018-05-15T03:31:44.427Z,16.43
2018-05-15T03:34:12.013Z,16.56
2018-05-15T03:36:39.584Z,16.69
2018-05-15T03:39:07.262Z,16.79
2018-05-15T03:41:34.824Z,16.92
2018-05-15T03:44:02.445Z,17.01
2018-05-15T03:46:30.077Z,17.15
2018-05-15T03:48:57.623Z,17.25
2018-05-15T03:51:25.173Z,17.33
2018-05-15T03:53:52.727Z,17.39
2018-05-15T03:56:20.329Z,17.51
2018-05-15T03:58:47.945Z,17.60
2018-05-15T04:01:27.397Z,17.71
2018-05-15T04:04:06.563Z,17.76
2018-05-15T04:06:45.923Z,17.92
2018-05-15T04:09:13.506Z,18.01
2018-05-15T04:11:41.125Z,18.15
2018-05-15T04:14:08.692Z,18.37
2018-05-15T04:16:36.257Z,18.83
2018-05-15T04:19:04.737Z,19.50
2018-05-15T04:21:32.314Z,20.10
2018-05-15T04:24:00.014Z,21.66
2018-05-15T04:26:27.582Z,23.46
2018-05-15T04:28:55.265Z,24.87
2018-05-15T04:31:22.889Z,26.28
2018-05-15T04:33:50.510Z,27.43
2018-05-15T04:36:18.077Z,27.63
2018-05-15T04:38:45.640Z,28.20
2018-05-15T04:41:13.265Z,28.35
2018-05-15T04:43:40.957Z,29.34
2018-05-15T04:46:08.601Z,30.05
2018-05-15T04:48:36.164Z,30.13
2018-05-15T04:51:03.710Z,30.01
2018-05-15T04:53:31.276Z,30.31
2018-05-15T04:55:58.832Z,30.21
2018-05-15T04:58:26.404Z,30.32
2018-05-15T05:00:53.960Z,30.00
2018-05-15T05:03:21.579Z,30.46
2018-05-15T05:05:49.139Z,30.61
2018-05-15T05:08:16.771Z,30.70
2018-05-15T05:10:44.398Z,31.38
2018-05-15T05:13:11.952Z,31.89
2018-05-15T05:15:39.581Z,31.66
2018-05-15T05:18:07.141Z,31.57
2018-05-15T05:20:34.737Z,32.51
2018-05-15T05:23:02.354Z,32.64
2018-05-15T05:25:29.973Z,32.46
2018-05-15T05:27:57.537Z,32.85
2018-05-15T05:30:25.103Z,33.20
2018-05-15T05:32:52.723Z,33.51
2018-05-15T05:35:20.277Z,32.91
2018-05-15T05:37:47.832Z,33.65
2018-05-15T05:40:15.405Z,34.38
2018-05-15T05:42:42.961Z,34.33
2018-05-15T05:45:10.576Z,33.04
2018-05-15T05:47:38.193Z,31.85
2018-05-15T05:50:05.812Z,30.24
2018-05-15T05:52:33.457Z,28.89
2018-05-15T05:55:01.009Z,28.36
2018-05-15T05:57:28.728Z,28.69
2018-05-15T05:59:56.290Z,29.35
2018-05-15T06:02:23.889Z,30.53
2018-05-15T06:04:51.449Z,31.97
2018-05-15T06:07:19.034Z,32.15
2018-05-15T06:09:46.669Z,31.93
2018-05-15T06:12:14.220Z,30.31
2018-05-15T06:14:41.844Z,29.14
2018-05-15T06:17:09.424Z,29.05
2018-05-15T06:19:37.033Z,30.68
2018-05-15T06:22:04.649Z,31.27
2018-05-15T06:24:32.214Z,31.87
2018-05-15T06:26:59.784Z,31.95
2018-05-15T06:29:27.403Z,32.22
2018-05-15T06:31:55.021Z,33.11
2018-05-15T06:34:22.581Z,33.68
2018-05-15T06:36:50.189Z,33.90
2018-05-15T06:39:17.745Z,33.11
2018-05-15T06:41:45.310Z,31.31
2018-05-15T06:44:12.934Z,30.96
2018-05-15T06:46:40.558Z,30.71
2018-05-15T06:49:08.238Z,30.18
2018-05-15T06:51:35.856Z,29.64
2018-05-15T06:54:03.483Z,29.02
2018-05-15T06:56:31.034Z,28.75
2018-05-15T06:58:58.645Z,28.65
2018-05-15T07:01:26.204Z,28.24
2018-05-15T07:03:53.775Z,28.00
2018-05-15T07:06:21.402Z,28.03
2018-05-15T07:08:48.962Z,28.64
2018-05-15T07:11:16.516Z,28.98
2018-05-15T07:13:44.081Z,29.85
2018-05-15T07:16:11.649Z,29.80
2018-05-15T07:18:39.212Z,29.97
2018-05-15T07:21:06.757Z,29.97
2018-05-15T07:23:34.365Z,29.94
2018-05-15T07:26:01.926Z,29.91
2018-05-15T07:28:29.485Z,29.89
2018-05-15T07:30:57.114Z,30.11
2018-05-15T07:33:24.739Z,30.18
2018-05-15T07:35:52.304Z,30.40
2018-05-15T07:38:19.865Z,31.51
2018-05-15T07:40:47.481Z,32.30
2018-05-15T07:43:15.097Z,31.75
2018-05-15T07:45:42.655Z,31.06
2018-05-15T07:48:10.232Z,30.58
2018-05-15T07:50:37.787Z,30.10
2018-05-15T07:53:05.404Z,29.87
2018-05-15T07:55:32.964Z,29.53
2018-05-15T07:58:00.584Z,29.41
2018-05-15T08:00:28.200Z,29.40
2018-05-15T08:02:55.756Z,29.27
2018-05-15T08:05:23.324Z,29.36
2018-05-15T08:07:50.948Z,29.93
2018-05-15T08:10:18.520Z,30.50
2018-05-15T08:12:46.080Z,30.68
2018-05-15T08:15:13.767Z,30.85
2018-05-15T08:17:41.382Z,30.76
2018-05-15T08:20:08.938Z,30.50
2018-05-15T08:22:36.506Z,30.77
2018-05-15T08:25:04.078Z,30.58
2018-05-15T08:27:31.662Z,30.68
2018-05-15T08:29:59.216Z,30.50
2018-05-15T08:32:26.837Z,30.84
2018-05-15T08:34:54.400Z,30.94
2018-05-15T08:37:21.968Z,31.03
2018-05-15T08:39:49.559Z,31.14
2018-05-15T08:42:17.098Z,30.91
2018-05-15T08:44:44.675Z,30.65
2018-05-15T08:47:12.298Z,30.57
2018-05-15T08:49:39.968Z,30.72
2018-05-15T08:52:07.525Z,30.66
2018-05-15T08:54:35.084Z,30.69
2018-05-15T08:57:02.654Z,30.58
2018-05-15T08:59:30.215Z,30.45
2018-05-15T09:01:57.777Z,30.82
2018-05-15T09:04:25.339Z,30.88
2018-05-15T09:06:52.952Z,31.00
2018-05-15T09:09:20.504Z,30.95
2018-05-15T09:11:48.163Z,31.09
2018-05-15T09:14:15.734Z,31.05
2018-05-15T09:16:43.288Z,31.20
2018-05-15T09:19:10.881Z,31.29
2018-05-15T09:21:38.478Z,31.34
2018-05-15T09:24:06.097Z,31.46
2018-05-15T09:26:33.652Z,31.16
2018-05-15T09:29:01.265Z,31.34
2018-05-15T09:31:28.889Z,31.53
2018-05-15T09:33:56.446Z,31.27
2018-05-15T09:36:24.106Z,30.83
2018-05-15T09:38:51.597Z,31.03
2018-05-15T09:41:19.358Z,31.30
2018-05-15T09:44:01.744Z,31.45
2018-05-15T09:46:29.368Z,31.76
2018-05-15T09:48:56.927Z,31.81
2018-05-15T09:51:24.555Z,32.06
2018-05-15T09:53:52.130Z,32.52
2018-05-15T09:56:19.683Z,32.92
2018-05-15T09:58:47.254Z,33.19
2018-05-15T10:01:14.869Z,33.53
2018-05-15T10:03:42.444Z,33.96
2018-05-15T10:06:10.061Z,34.16
2018-05-15T10:08:37.676Z,34.21
2018-05-15T10:11:05.238Z,34.10
2018-05-15T10:13:32.793Z,33.82
2018-05-15T10:16:00.416Z,33.74
2018-05-15T10:18:27.977Z,33.72
2018-05-15T10:20:55.540Z,33.77
2018-05-15T10:23:23.166Z,34.18
2018-05-15T10:25:50.849Z,34.54
2018-05-15T10:28:18.404Z,34.93
2018-05-15T10:30:45.961Z,34.86
2018-05-15T10:33:13.528Z,35.03
2018-05-15T10:35:41.152Z,35.23
2018-05-15T10:38:08.765Z,35.01
2018-05-15T10:40:36.380Z,35.33
2018-05-15T10:43:03.991Z,35.23
2018-05-15T10:45:31.662Z,34.70
2018-05-15T10:47:59.231Z,35.02
2018-05-15T10:50:26.810Z,35.09
2018-05-15T10:52:54.390Z,35.20
2018-05-15T10:55:21.960Z,36.15
2018-05-15T10:57:49.529Z,36.46
2018-05-15T11:00:17.140Z,36.69
2018-05-15T11:02:44.757Z,36.46
2018-05-15T11:05:12.320Z,36.46
2018-05-15T11:07:39.957Z,36.54
2018-05-15T11:10:07.558Z,36.18
2018-05-15T11:12:35.244Z,35.90
2018-05-15T11:15:02.795Z,35.87
2018-05-15T11:17:30.464Z,36.16
2018-05-15T11:20:09.765Z,35.89
2018-05-15T11:22:49.282Z,35.59
2018-05-15T11:25:16.840Z,35.88
2018-05-15T11:27:44.457Z,36.30
2018-05-15T11:30:12.037Z,36.82
2018-05-15T11:32:39.596Z,36.57
2018-05-15T11:35:07.146Z,36.82
2018-05-15T11:37:34.772Z,37.25
2018-05-15T11:40:02.385Z,37.06
2018-05-15T11:42:29.943Z,37.04
2018-05-15T11:44:57.500Z,36.73
2018-05-15T11:47:25.198Z,36.14
2018-05-15T11:49:53.831Z,36.28
2018-05-15T11:52:21.305Z,36.61
2018-05-15T11:54:47.917Z,37.08
2018-05-15T11:57:15.532Z,37.19
2018-05-15T11:59:43.109Z,36.97
2018-05-15T12:02:10.666Z,36.88
2018-05-15T12:04:38.246Z,37.13
2018-05-15T12:07:05.887Z,37.08
2018-05-15T12:09:33.526Z,37.61
2018-05-15T12:12:01.145Z,37.48
2018-05-15T12:14:28.714Z,36.87
2018-05-15T12:16:56.289Z,36.55
2018-05-15T12:19:23.841Z,36.45
2018-05-15T12:21:51.403Z,36.69
2018-05-15T12:24:18.960Z,36.59
2018-05-15T12:26:46.598Z,37.09
2018-05-15T12:29:14.218Z,37.27
2018-05-15T12:31:41.879Z,37.20
2018-05-15T12:34:09.519Z,36.90
2018-05-15T12:36:37.072Z,36.89
2018-05-15T12:39:04.717Z,37.00
2018-05-15T12:41:32.370Z,36.82
2018-05-15T12:43:59.895Z,36.59
2018-05-15T12:46:27.515Z,36.19
2018-05-15T12:48:55.085Z,36.11
2018-05-15T12:51:22.652Z,35.88
2018-05-15T12:53:50.213Z,35.96
2018-05-15T12:56:17.817Z,35.84
2018-05-15T12:58:45.380Z,36.19
2018-05-15T13:01:12.932Z,36.33
2018-05-15T13:03:40.493Z,36.65
2018-05-15T13:06:08.053Z,36.39
2018-05-15T13:08:35.733Z,36.50
2018-05-15T13:11:03.293Z,36.67
2018-05-15T13:13:30.853Z,37.25
2018-05-15T13:15:58.477Z,37.53
2018-05-15T13:18:26.115Z,37.20
2018-05-15T13:20:53.816Z,36.69
2018-05-15T13:23:21.348Z,36.79
2018-05-15T13:25:48.904Z,36.96
2018-05-15T13:28:16.471Z,37.22
2018-05-15T13:30:44.077Z,37.10
2018-05-15T13:33:11.637Z,37.03
2018-05-15T13:35:39.200Z,36.82
2018-05-15T13:38:06.804Z,37.17
2018-05-15T13:40:34.367Z,37.68
2018-05-15T13:43:01.985Z,37.57
2018-05-15T13:45:29.620Z,36.96
2018-05-15T13:47:57.273Z,36.87
2018-05-15T13:50:24.894Z,37.09
2018-05-15T13:52:52.450Z,36.77
2018-05-15T13:55:20.064Z,35.93
2018-05-15T13:57:47.639Z,35.13
2018-05-15T14:00:15.193Z,34.07
2018-05-15T14:02:42.821Z,33.22
2018-05-15T14:05:10.376Z,32.54
2018-05-15T14:07:37.988Z,32.23
2018-05-15T14:10:05.549Z,31.80
2018-05-15T14:12:33.155Z,31.24
2018-05-15T14:15:00.712Z,31.02
2018-05-15T14:17:28.271Z,30.71
2018-05-15T14:19:55.836Z,30.36
2018-05-15T14:22:23.401Z,30.18
2018-05-15T14:24:51.019Z,30.13
2018-05-15T14:27:18.577Z,30.02
2018-05-15T14:29:46.189Z,29.95
2018-05-15T14:32:13.760Z,29.80
2018-05-15T14:34:41.332Z,29.85
2018-05-15T14:37:08.961Z,29.78
2018-05-15T14:39:36.558Z,29.78
2018-05-15T14:42:15.998Z,29.67
2018-05-15T14:44:43.617Z,29.54
2018-05-15T14:47:11.241Z,29.52
2018-05-15T14:49:38.796Z,29.48
2018-05-15T14:52:06.409Z,29.45
2018-05-15T14:54:34.163Z,29.43
2018-05-15T14:57:01.720Z,29.44
2018-05-15T14:59:29.331Z,29.40
2018-05-15T15:01:56.963Z,29.34
2018-05-15T15:04:24.530Z,29.22
2018-05-15T15:06:52.357Z,29.17
2018-05-15T15:09:19.956Z,29.21
2018-05-15T15:11:48.448Z,29.25
2018-05-15T15:14:16.001Z,29.24
2018-05-15T15:16:43.630Z,29.22
2018-05-15T15:19:11.203Z,29.22
2018-05-15T15:21:38.775Z,29.19
2018-05-15T15:24:06.340Z,29.17
2018-05-15T15:26:33.967Z,29.11
2018-05-15T15:29:01.532Z,29.13
2018-05-15T15:31:29.144Z,29.07
2018-05-15T15:33:57.004Z,29.04
2018-05-15T15:36:24.698Z,29.07
2018-05-15T15:38:52.239Z,29.00
2018-05-15T15:41:19.812Z,29.03
2018-05-15T15:43:47.401Z,28.96
2018-05-15T15:46:15.113Z,28.93
2018-05-15T15:48:42.677Z,28.91
2018-05-15T15:51:10.293Z,28.83
2018-05-15T15:53:37.904Z,28.77
2018-05-15T15:56:05.544Z,28.67
2018-05-15T15:58:33.214Z,28.51
2018-05-15T16:01:00.829Z,28.40
2018-05-15T16:03:28.384Z,28.31
2018-05-15T16:05:55.930Z,28.13
2018-05-15T16:08:23.541Z,28.01
2018-05-15T16:10:51.108Z,27.90
2018-05-15T16:13:18.724Z,27.82
2018-05-15T16:15:46.396Z,27.69
2018-05-15T16:18:13.966Z,27.57
2018-05-15T16:20:41.581Z,27.41
2018-05-15T16:23:09.211Z,27.35
2018-05-15T16:25:36.838Z,27.23
2018-05-15T16:28:04.513Z,27.22
2018-05-15T16:30:32.134Z,27.15
2018-05-15T16:32:59.744Z,27.03
2018-05-15T16:35:27.316Z,26.96
2018-05-15T16:37:54.872Z,26.89
2018-05-15T16:40:22.438Z,26.77
2018-05-15T16:42:50.000Z,26.65
2018-05-15T16:45:17.625Z,26.49
2018-05-15T16:47:45.266Z,26.38
2018-05-15T16:50:12.896Z,26.23
2018-05-15T16:52:40.528Z,26.11
2018-05-15T16:55:08.036Z,25.97
2018-05-15T16:57:35.598Z,25.86
2018-05-15T17:00:03.269Z,25.74
2018-05-15T17:02:30.953Z,25.60
2018-05-15T17:04:58.516Z,25.49
2018-05-15T17:07:26.101Z,25.43
2018-05-15T17:09:53.732Z,25.35
2018-05-15T17:12:21.288Z,25.29
2018-05-15T17:14:48.910Z,25.18
2018-05-15T17:17:16.535Z,25.12
2018-05-15T17:19:44.097Z,25.08
2018-05-15T17:22:11.679Z,24.99
2018-05-15T17:24:39.245Z,24.95
2018-05-15T17:27:06.917Z,24.95
2018-05-15T17:29:34.467Z,24.97
2018-05-15T17:32:02.020Z,24.96
2018-05-15T17:34:29.591Z,24.86
2018-05-15T17:36:57.153Z,24.75
2018-05-15T17:39:24.830Z,24.70
2018-05-15T17:41:52.384Z,24.63
2018-05-15T17:44:20.005Z,24.52
2018-05-15T17:46:47.580Z,24.50
2018-05-15T17:49:15.159Z,24.46
2018-05-15T17:51:42.720Z,24.44
2018-05-15T17:54:10.272Z,24.53
2018-05-15T17:56:37.880Z,24.55
2018-05-15T17:59:05.527Z,24.55
2018-05-15T18:01:33.093Z,24.45
2018-05-15T18:04:00.717Z,24.48
2018-05-15T18:06:28.291Z,24.53
2018-05-15T18:08:55.860Z,24.56
2018-05-15T18:11:23.425Z,24.60
2018-05-15T18:13:51.040Z,24.54
2018-05-15T18:16:18.606Z,24.48
2018-05-15T18:18:46.224Z,24.50
2018-05-15T18:21:13.864Z,24.44
2018-05-15T18:23:41.493Z,24.48
2018-05-15T18:26:09.187Z,24.44
2018-05-15T18:28:36.743Z,24.42
2018-05-15T18:31:04.417Z,24.44
2018-05-15T18:33:32.038Z,24.38
2018-05-15T18:35:59.601Z,24.42
2018-05-15T18:38:27.168Z,24.37
2018-05-15T18:40:54.720Z,24.32
2018-05-15T18:43:22.292Z,24.31
2018-05-15T18:45:49.921Z,24.22
2018-05-15T18:48:17.540Z,24.17
2018-05-15T18:50:45.157Z,24.13
2018-05-15T18:53:12.721Z,24.24
2018-05-15T18:55:40.355Z,24.30
2018-05-15T18:58:07.917Z,24.28
2018-05-15T19:00:35.556Z,24.21
2018-05-15T19:03:03.120Z,24.20
2018-05-15T19:05:30.746Z,24.17
2018-05-15T19:07:58.401Z,24.13
2018-05-15T19:10:26.043Z,24.11
2018-05-15T19:12:53.588Z,24.06
2018-05-15T19:15:21.156Z,23.99
2018-05-15T19:17:48.801Z,23.98
2018-05-15T19:20:16.366Z,23.96
2018-05-15T19:22:43.985Z,23.91
2018-05-15T19:25:11.549Z,23.86
2018-05-15T19:27:39.090Z,23.81
2018-05-15T19:30:06.649Z,23.68
2018-05-15T19:32:39.096Z,23.58
2018-05-15T19:35:07.589Z,23.53
2018-05-15T19:37:35.149Z,23.43
2018-05-15T19:40:08.336Z,23.33
2018-05-15T19:42:36.013Z,23.29
2018-05-15T19:45:03.698Z,23.24
2018-05-15T19:47:31.319Z,23.36
2018-05-15T19:49:58.872Z,23.40
2018-05-15T19:52:26.443Z,23.45
2018-05-15T19:54:54.011Z,23.48
2018-05-15T19:57:21.630Z,23.60
2018-05-15T19:59:49.261Z,23.60
2018-05-15T20:02:16.820Z,23.60
2018-05-15T20:04:44.392Z,23.55
2018-05-15T20:07:12.023Z,23.51
2018-05-15T20:09:39.657Z,23.48
2018-05-15T20:12:07.259Z,23.44
2018-05-15T20:14:34.876Z,23.44
2018-05-15T20:17:02.432Z,23.42
2018-05-15T20:19:29.992Z,23.43
2018-05-15T20:21:57.562Z,23.42
2018-05-15T20:24:25.124Z,23.44
2018-05-15T20:26:52.751Z,23.40
2018-05-15T20:29:20.382Z,23.36
2018-05-15T20:31:48.060Z,23.29
2018-05-15T20:34:15.681Z,23.25
2018-05-15T20:36:43.241Z,23.19
2018-05-15T20:39:10.868Z,23.14
2018-05-15T20:41:38.436Z,23.10
2018-05-15T20:44:06.064Z,22.98
2018-05-15T20:46:33.652Z,22.84
2018-05-15T20:49:01.327Z,22.67
2018-05-15T20:51:28.888Z,22.55
2018-05-15T20:53:56.527Z,22.37
2018-05-15T20:56:24.104Z,22.27
2018-05-15T20:58:51.720Z,22.16
2018-05-15T21:01:19.348Z,22.03
2018-05-15T21:03:46.908Z,21.95
2018-05-15T21:06:14.584Z,21.91
2018-05-15T21:08:42.209Z,21.87
2018-05-15T21:11:09.825Z,21.81
2018-05-15T21:13:37.380Z,21.75
2018-05-15T21:16:04.942Z,21.70
2018-05-15T21:18:32.509Z,21.62
2018-05-15T21:21:00.073Z,21.53
2018-05-15T21:23:27.730Z,21.42
2018-05-15T21:25:55.279Z,21.34
2018-05-15T21:28:22.860Z,21.25
2018-05-15T21:30:50.428Z,21.22
2018-05-15T21:33:17.988Z,21.22
2018-05-15T21:35:45.561Z,21.26
2018-05-15T21:38:13.122Z,21.22
2018-05-15T21:40:40.732Z,21.23
2018-05-15T21:43:08.292Z,21.28
2018-05-15T21:45:35.921Z,21.32
2018-05-15T21:48:03.502Z,21.35
2018-05-15T21:50:31.114Z,21.32
2018-05-15T21:52:58.680Z,21.29
2018-05-15T21:55:26.244Z,21.22
2018-05-15T21:57:53.943Z,21.20
2018-05-15T22:00:21.560Z,21.17
2018-05-15T22:02:49.219Z,21.12
2018-05-15T22:05:16.853Z,21.13
2018-05-15T22:07:44.412Z,21.12
2018-05-15T22:10:12.049Z,21.14
2018-05-15T22:12:51.477Z,21.19
2018-05-15T22:15:30.949Z,21.36
2018-05-15T22:18:10.204Z,21.51
2018-05-15T22:20:49.632Z,21.56
2018-05-15T22:23:16.650Z,21.59
2018-05-15T22:25:44.317Z,21.61
2018-05-15T22:28:11.929Z,21.64
2018-05-15T22:30:39.488Z,21.67
2018-05-15T22:33:07.126Z,21.69
2018-05-15T22:35:34.679Z,21.69
2018-05-15T22:38:02.254Z,21.70
2018-05-15T22:40:29.827Z,21.81
2018-05-15T22:42:57.436Z,21.84
2018-05-15T22:45:25.032Z,21.83
2018-05-15T22:47:52.598Z,21.81
2018-05-15T22:50:20.172Z,21.77
2018-05-15T22:52:47.788Z,21.74
2018-05-15T22:55:15.413Z,21.73
2018-05-15T22:57:42.972Z,21.68
2018-05-15T23:00:10.638Z,21.68
2018-05-15T23:02:38.257Z,21.68
2018-05-15T23:05:05.823Z,21.63
2018-05-15T23:07:33.388Z,21.58
2018-05-15T23:10:01.111Z,21.52
2018-05-15T23:12:28.752Z,21.39
2018-05-15T23:14:56.369Z,21.32
2018-05-15T23:17:23.988Z,21.23
2018-05-15T23:19:51.622Z,21.14
2018-05-15T23:22:30.892Z,21.06
2018-05-15T23:24:58.453Z,21.01
2018-05-15T23:27:26.084Z,20.94
2018-05-15T23:29:53.652Z,20.90
2018-05-15T23:32:21.288Z,20.84
2018-05-15T23:34:48.880Z,20.89
2018-05-15T23:37:16.444Z,20.96
2018-05-15T23:39:44.117Z,21.13
2018-05-15T23:42:11.733Z,21.22
2018-05-15T23:44:39.297Z,21.30
2018-05-15T23:47:06.928Z,21.39
2018-05-15T23:49:34.493Z,21.51
2018-05-15T23:52:02.164Z,21.56
2018-05-15T23:54:29.729Z,21.54
2018-05-15T23:56:57.349Z,21.51
2018-05-15T23:59:24.920Z,21.52
